createdAt,value
2022-09-28T00:01:25.037Z,13.22
2022-09-28T00:04:27.652Z,13.11
2022-09-28T00:07:30.010Z,13.16
2022-09-28T00:10:32.275Z,13.23
2022-09-28T00:13:35.323Z,13.30
2022-09-28T00:16:43.773Z,13.30
2022-09-28T00:19:46.167Z,13.17
2022-09-28T00:22:48.372Z,13.18
2022-09-28T00:25:50.918Z,13.19
2022-09-28T00:28:54.454Z,13.24
2022-09-28T00:32:04.183Z,13.20
2022-09-28T00:35:07.019Z,12.97
2022-09-28T00:38:09.522Z,12.97
2022-09-28T00:41:12.339Z,12.98
2022-09-28T00:44:26.845Z,13.11
2022-09-28T00:47:49.919Z,13.08
2022-09-28T00:50:52.855Z,13.14
2022-09-28T00:53:56.311Z,13.21
2022-09-28T00:56:59.301Z,13.22
2022-09-28T01:00:02.362Z,13.12
2022-09-28T01:03:04.637Z,13.05
2022-09-28T01:06:07.843Z,12.96
2022-09-28T01:09:10.673Z,12.86
2022-09-28T01:12:13.098Z,12.85
2022-09-28T01:15:15.664Z,12.79
2022-09-28T01:18:35.612Z,12.78
2022-09-28T01:22:19.169Z,12.76
2022-09-28T01:25:46.795Z,12.68
2022-09-28T01:28:55.587Z,12.75
2022-09-28T01:32:31.995Z,12.71
2022-09-28T01:35:44.687Z,12.71
2022-09-28T01:38:49.354Z,12.82
2022-09-28T01:41:53.303Z,12.95
2022-09-28T01:45:01.718Z,13.03
2022-09-28T01:48:06.228Z,12.96
2022-09-28T01:51:13.011Z,13.06
2022-09-28T01:54:40.829Z,13.17
2022-09-28T01:57:47.342Z,13.12
2022-09-28T02:00:56.197Z,13.11
2022-09-28T02:04:04.695Z,13.10
2022-09-28T02:07:13.041Z,12.97
2022-09-28T02:10:23.207Z,12.90
2022-09-28T02:13:33.839Z,12.87
2022-09-28T02:16:41.224Z,12.71
2022-09-28T02:19:44.289Z,12.71
2022-09-28T02:22:52.245Z,12.71
2022-09-28T02:26:03.947Z,12.67
2022-09-28T02:29:06.505Z,12.65
2022-09-28T02:32:08.769Z,12.68
2022-09-28T02:35:13.822Z,12.69
2022-09-28T02:38:16.287Z,12.58
2022-09-28T02:41:26.090Z,12.60
2022-09-28T02:44:52.971Z,12.64
2022-09-28T02:48:55.734Z,12.61
2022-09-28T02:51:53.758Z,12.73
2022-09-28T02:55:11.506Z,12.74
2022-09-28T02:58:22.462Z,12.70
2022-09-28T03:01:52.685Z,12.64
2022-09-28T03:04:55.107Z,12.75
2022-09-28T03:08:06.495Z,12.62
2022-09-28T03:11:14.996Z,12.68
2022-09-28T03:14:18.802Z,12.80
2022-09-28T03:17:26.663Z,12.68
2022-09-28T03:20:30.539Z,12.65
2022-09-28T03:23:33.269Z,12.76
2022-09-28T03:26:40.294Z,12.75
2022-09-28T03:29:42.788Z,12.74
2022-09-28T03:32:45.311Z,12.82
2022-09-28T03:35:51.318Z,12.76
2022-09-28T03:38:56.749Z,12.94
2022-09-28T03:42:01.308Z,12.96
2022-09-28T03:45:06.137Z,13.06
2022-09-28T03:48:08.684Z,13.12
2022-09-28T03:51:12.226Z,13.27
2022-09-28T03:54:14.667Z,13.14
2022-09-28T03:57:16.913Z,13.13
2022-09-28T04:00:19.840Z,13.14
2022-09-28T04:03:22.045Z,13.20
2022-09-28T04:06:25.270Z,13.20
2022-09-28T04:09:27.598Z,13.19
2022-09-28T04:12:30.433Z,13.10
2022-09-28T04:15:32.697Z,13.12
2022-09-28T04:18:35.299Z,13.13
2022-09-28T04:21:46.655Z,13.13
2022-09-28T04:24:50.153Z,13.15
2022-09-28T04:28:16.369Z,13.17
2022-09-28T04:31:21.234Z,13.17
2022-09-28T04:34:23.595Z,13.23
2022-09-28T04:37:25.921Z,12.88
2022-09-28T04:40:28.269Z,13.05
2022-09-28T04:43:31.235Z,13.00
2022-09-28T04:46:34.141Z,13.02
2022-09-28T04:49:56.695Z,12.99
2022-09-28T04:53:06.722Z,12.91
2022-09-28T04:56:11.921Z,12.90
2022-09-28T04:59:15.531Z,12.78
2022-09-28T05:02:18.478Z,12.69
2022-09-28T05:05:47.699Z,12.71
2022-09-28T05:09:04.443Z,12.66
2022-09-28T05:12:09.128Z,12.76
2022-09-28T05:15:12.636Z,12.75
2022-09-28T05:18:14.888Z,12.67
2022-09-28T05:21:25.201Z,12.71
2022-09-28T05:24:27.415Z,12.75
2022-09-28T05:27:29.768Z,12.66
2022-09-28T05:30:41.790Z,12.64
2022-09-28T05:34:02.599Z,12.67
2022-09-28T05:37:04.969Z,12.61
2022-09-28T05:40:07.750Z,12.68
2022-09-28T05:43:10.029Z,12.62
2022-09-28T05:46:12.352Z,12.74
2022-09-28T05:49:17.236Z,12.69
2022-09-28T05:52:19.901Z,12.61
2022-09-28T05:55:22.205Z,12.87
2022-09-28T05:58:24.512Z,12.86
2022-09-28T06:01:27.293Z,13.06
2022-09-28T06:04:31.121Z,13.31
2022-09-28T06:07:34.486Z,13.49
2022-09-28T06:10:36.868Z,13.79
2022-09-28T06:13:40.036Z,14.02
2022-09-28T06:16:44.000Z,14.08
2022-09-28T06:19:47.462Z,14.11
2022-09-28T06:23:01.271Z,14.30
2022-09-28T06:26:03.528Z,14.15
2022-09-28T06:29:05.997Z,14.27
2022-09-28T06:32:08.504Z,14.71
2022-09-28T06:35:15.533Z,14.84
2022-09-28T06:38:18.562Z,15.12
2022-09-28T06:41:20.949Z,14.96
2022-09-28T06:44:24.317Z,15.23
2022-09-28T06:47:33.840Z,15.39
2022-09-28T06:50:47.517Z,15.45
2022-09-28T06:54:01.645Z,15.49
2022-09-28T06:57:23.876Z,15.85
2022-09-28T07:00:32.896Z,16.17
2022-09-28T07:03:35.626Z,16.33
2022-09-28T07:06:59.159Z,16.46
2022-09-28T07:10:28.799Z,16.99
2022-09-28T07:13:50.704Z,16.99
2022-09-28T07:17:12.442Z,17.49
2022-09-28T07:20:19.348Z,18.01
2022-09-28T07:23:24.256Z,18.38
2022-09-28T07:26:52.112Z,18.85
2022-09-28T07:30:05.961Z,18.95
2022-09-28T07:33:31.596Z,19.16
2022-09-28T07:36:57.451Z,19.23
2022-09-28T07:40:26.023Z,19.38
2022-09-28T07:43:28.915Z,19.33
2022-09-28T07:46:33.010Z,19.42
2022-09-28T07:49:40.125Z,19.53
2022-09-28T07:53:10.121Z,19.95
2022-09-28T07:56:31.043Z,20.34
2022-09-28T07:59:53.687Z,20.27
2022-09-28T08:03:24.876Z,20.23
2022-09-28T08:06:30.228Z,20.21
2022-09-28T08:09:32.662Z,20.37
2022-09-28T08:13:01.969Z,20.41
2022-09-28T08:16:14.190Z,20.42
2022-09-28T08:20:13.254Z,20.27
2022-09-28T08:23:16.077Z,20.21
2022-09-28T08:26:18.529Z,19.97
2022-09-28T08:29:22.351Z,20.23
2022-09-28T08:32:24.779Z,20.25
2022-09-28T08:36:00.321Z,20.36
2022-09-28T08:39:34.487Z,20.24
2022-09-28T08:42:57.808Z,20.07
2022-09-28T08:46:25.028Z,20.22
2022-09-28T08:49:50.323Z,20.34
2022-09-28T08:52:57.918Z,20.34
2022-09-28T08:56:38.024Z,19.96
2022-09-28T08:59:48.747Z,19.77
2022-09-28T09:02:56.533Z,19.73
2022-09-28T09:06:42.671Z,19.79
2022-09-28T09:10:22.920Z,19.93
2022-09-28T09:13:56.685Z,19.91
2022-09-28T09:17:12.240Z,20.35
2022-09-28T09:20:56.928Z,20.12
2022-09-28T09:24:18.872Z,20.09
2022-09-28T09:27:21.163Z,20.28
2022-09-28T09:30:25.928Z,20.16
2022-09-28T09:33:52.491Z,20.17
2022-09-28T09:37:28.638Z,20.13
2022-09-28T09:44:45.466Z,20.03
2022-09-28T09:48:13.563Z,20.47
2022-09-28T09:51:30.068Z,20.37
2022-09-28T09:54:46.745Z,20.62
2022-09-28T09:58:14.877Z,20.55
2022-09-28T10:01:23.514Z,20.82
2022-09-28T10:04:50.803Z,20.64
2022-09-28T10:08:13.270Z,20.19
2022-09-28T10:11:28.069Z,19.76
2022-09-28T10:14:31.239Z,19.51
2022-09-28T10:17:42.989Z,19.62
2022-09-28T10:21:15.275Z,19.59
2022-09-28T10:24:41.389Z,19.21
2022-09-28T10:27:46.256Z,18.96
2022-09-28T10:30:49.771Z,19.09
2022-09-28T10:33:53.487Z,18.81
2022-09-28T10:37:00.744Z,18.94
2022-09-28T10:40:43.879Z,18.95
2022-09-28T10:44:07.174Z,18.99
2022-09-28T10:47:17.602Z,18.91
2022-09-28T10:50:24.244Z,18.66
2022-09-28T10:53:37.168Z,18.94
2022-09-28T10:57:02.398Z,19.03
2022-09-28T11:00:32.024Z,18.82
2022-09-28T11:03:52.582Z,18.64
2022-09-28T11:10:28.001Z,18.55
2022-09-28T11:14:03.819Z,18.69
2022-09-28T11:17:20.633Z,18.75
2022-09-28T11:20:28.479Z,19.05
2022-09-28T11:23:34.983Z,19.46
2022-09-28T11:26:52.972Z,19.52
2022-09-28T11:29:59.472Z,19.32
2022-09-28T11:33:05.524Z,19.42
2022-09-28T11:37:01.493Z,19.67
2022-09-28T11:40:13.671Z,19.59
2022-09-28T11:43:16.844Z,19.78
2022-09-28T11:46:40.355Z,19.60
2022-09-28T11:49:54.623Z,19.72
2022-09-28T11:53:12.006Z,19.60
2022-09-28T11:56:17.392Z,19.73
2022-09-28T11:59:27.656Z,19.95
2022-09-28T12:02:59.468Z,20.04
2022-09-28T12:06:05.524Z,19.82
2022-09-28T12:09:16.598Z,20.18
2022-09-28T12:12:32.894Z,20.20
2022-09-28T12:16:32.754Z,20.13
2022-09-28T12:19:46.888Z,20.13
2022-09-28T12:23:06.014Z,20.01
2022-09-28T12:26:22.055Z,19.92
2022-09-28T12:29:32.687Z,20.04
2022-09-28T12:32:51.243Z,20.35
2022-09-28T12:36:17.669Z,20.33
2022-09-28T12:40:00.287Z,20.06
2022-09-28T12:43:03.346Z,20.04
2022-09-28T12:46:24.407Z,20.03
2022-09-28T12:53:24.126Z,19.87
2022-09-28T12:56:50.298Z,19.64
2022-09-28T13:00:00.759Z,19.61
2022-09-28T13:03:03.117Z,19.47
2022-09-28T13:06:33.768Z,19.25
2022-09-28T13:09:47.666Z,19.23
2022-09-28T13:13:26.187Z,19.39
2022-09-28T13:16:44.079Z,19.30
2022-09-28T13:19:59.186Z,19.26
2022-09-28T13:23:07.344Z,19.26
2022-09-28T13:26:17.591Z,19.34
2022-09-28T13:29:20.930Z,19.12
2022-09-28T13:32:25.974Z,18.99
2022-09-28T13:35:28.586Z,18.92
2022-09-28T13:38:44.848Z,18.69
2022-09-28T13:41:48.825Z,18.77
2022-09-28T13:45:00.793Z,18.68
2022-09-28T13:48:13.425Z,18.72
2022-09-28T13:51:44.911Z,18.64
2022-09-28T13:54:52.813Z,18.86
2022-09-28T13:58:02.615Z,18.88
2022-09-28T14:01:12.066Z,18.69
2022-09-28T14:04:28.978Z,18.64
2022-09-28T14:08:05.420Z,18.70
2022-09-28T14:11:34.368Z,18.58
2022-09-28T14:14:45.891Z,18.69
2022-09-28T14:17:54.388Z,18.54
2022-09-28T14:21:02.720Z,18.51
2022-09-28T14:24:14.818Z,18.34
2022-09-28T14:27:20.179Z,18.26
2022-09-28T14:30:23.687Z,18.12
2022-09-28T14:33:31.143Z,18.01
2022-09-28T14:37:01.533Z,17.84
2022-09-28T14:40:49.553Z,17.94
2022-09-28T14:44:05.668Z,18.01
2022-09-28T14:47:34.969Z,18.08
2022-09-28T14:50:37.313Z,18.05
2022-09-28T14:53:39.924Z,18.06
2022-09-28T14:56:53.818Z,17.92
2022-09-28T14:59:59.585Z,17.81
2022-09-28T15:03:06.741Z,17.83
2022-09-28T15:06:16.268Z,17.73
2022-09-28T15:09:38.146Z,17.77
2022-09-28T15:12:43.668Z,17.66
2022-09-28T15:15:50.571Z,17.73
2022-09-28T15:19:21.469Z,17.68
2022-09-28T15:22:23.702Z,17.64
2022-09-28T15:25:28.460Z,17.67
2022-09-28T15:28:30.892Z,17.57
2022-09-28T15:31:35.881Z,17.61
2022-09-28T15:34:54.635Z,17.66
2022-09-28T15:37:57.074Z,17.64
2022-09-28T15:41:02.834Z,17.62
2022-09-28T15:44:17.216Z,17.46
2022-09-28T15:47:27.655Z,17.48
2022-09-28T15:50:30.370Z,17.38
2022-09-28T15:53:33.306Z,17.38
2022-09-28T15:56:55.132Z,17.42
2022-09-28T15:59:59.199Z,17.39
2022-09-28T16:03:05.465Z,17.32
2022-09-28T16:06:09.434Z,17.24
2022-09-28T16:09:31.569Z,17.21
2022-09-28T16:12:48.716Z,17.22
2022-09-28T16:15:58.226Z,17.23
2022-09-28T16:19:01.270Z,17.13
2022-09-28T16:22:06.450Z,17.06
2022-09-28T16:25:17.062Z,16.91
2022-09-28T16:28:26.600Z,16.90
2022-09-28T16:31:33.846Z,16.90
2022-09-28T16:34:36.484Z,16.87
2022-09-28T16:37:43.055Z,16.91
2022-09-28T16:40:49.565Z,16.90
2022-09-28T16:44:02.298Z,16.81
2022-09-28T16:47:04.609Z,16.85
2022-09-28T16:50:07.452Z,16.75
2022-09-28T16:53:33.845Z,16.75
2022-09-28T16:56:36.712Z,16.79
2022-09-28T16:59:39.219Z,16.56
2022-09-28T17:02:46.577Z,16.68
2022-09-28T17:05:50.397Z,16.67
2022-09-28T17:08:56.602Z,16.67
2022-09-28T17:11:58.960Z,16.68
2022-09-28T17:15:01.195Z,16.65
2022-09-28T17:18:04.213Z,16.63
2022-09-28T17:21:10.135Z,16.68
2022-09-28T17:24:12.376Z,16.67
2022-09-28T17:27:17.353Z,16.56
2022-09-28T17:30:23.648Z,16.42
2022-09-28T17:33:28.398Z,16.35
2022-09-28T17:36:31.030Z,16.30
2022-09-28T17:39:33.313Z,16.25
2022-09-28T17:42:35.511Z,16.32
2022-09-28T17:45:41.730Z,16.30
2022-09-28T17:48:46.773Z,16.16
2022-09-28T17:51:50.300Z,16.22
2022-09-28T17:54:52.508Z,16.15
2022-09-28T17:57:55.593Z,16.20
2022-09-28T18:00:57.861Z,16.30
2022-09-28T18:04:01.781Z,16.25
2022-09-28T18:07:04.139Z,16.22
2022-09-28T18:10:07.141Z,16.18
2022-09-28T18:13:09.682Z,16.14
2022-09-28T18:16:12.704Z,16.10
2022-09-28T18:19:15.220Z,15.98
2022-09-28T18:22:17.563Z,15.95
2022-09-28T18:25:19.885Z,15.87
2022-09-28T18:28:23.100Z,15.73
2022-09-28T18:31:25.480Z,15.75
2022-09-28T18:34:27.774Z,15.66
2022-09-28T18:37:30.148Z,15.55
2022-09-28T18:40:33.802Z,15.58
2022-09-28T18:43:37.067Z,15.51
2022-09-28T18:46:40.656Z,15.50
2022-09-28T18:49:46.593Z,15.53
2022-09-28T18:52:49.162Z,15.39
2022-09-28T18:55:51.428Z,15.39
2022-09-28T18:58:53.721Z,15.35
2022-09-28T19:01:56.069Z,15.26
2022-09-28T19:04:58.501Z,15.29
2022-09-28T19:08:00.937Z,15.30
2022-09-28T19:11:15.691Z,15.31
2022-09-28T19:14:18.000Z,15.27
2022-09-28T19:17:20.813Z,15.32
2022-09-28T19:20:23.234Z,15.30
2022-09-28T19:23:25.543Z,15.27
2022-09-28T19:26:28.344Z,15.27
2022-09-28T19:29:30.675Z,15.17
2022-09-28T19:32:32.956Z,15.17
2022-09-28T19:35:35.203Z,15.14
2022-09-28T19:38:39.044Z,15.13
2022-09-28T19:41:51.392Z,15.10
2022-09-28T19:44:53.786Z,15.08
2022-09-28T19:47:59.550Z,15.06
2022-09-28T19:51:04.008Z,14.88
2022-09-28T19:54:06.970Z,14.90
2022-09-28T19:57:09.405Z,14.89
2022-09-28T20:00:11.847Z,14.90
2022-09-28T20:03:14.264Z,14.91
2022-09-28T20:06:17.456Z,14.95
2022-09-28T20:09:20.154Z,14.92
2022-09-28T20:12:22.540Z,14.93
2022-09-28T20:15:25.280Z,14.97
2022-09-28T20:18:27.866Z,14.89
2022-09-28T20:21:30.427Z,14.86
2022-09-28T20:24:32.944Z,14.94
2022-09-28T20:27:35.385Z,14.81
2022-09-28T20:30:38.467Z,14.90
2022-09-28T20:33:44.119Z,14.79
2022-09-28T20:36:46.413Z,14.76
2022-09-28T20:39:48.890Z,14.80
2022-09-28T20:42:51.537Z,14.83
2022-09-28T20:45:56.237Z,14.95
2022-09-28T20:48:59.605Z,14.86
2022-09-28T20:52:02.272Z,14.82
2022-09-28T20:55:04.942Z,14.70
2022-09-28T20:58:07.158Z,14.78
2022-09-28T21:01:14.743Z,14.76
2022-09-28T21:04:17.089Z,14.75
2022-09-28T21:07:19.456Z,14.68
2022-09-28T21:10:21.744Z,14.76
2022-09-28T21:13:25.132Z,14.74
2022-09-28T21:16:30.098Z,14.75
2022-09-28T21:19:32.348Z,14.63
2022-09-28T21:22:34.651Z,14.74
2022-09-28T21:25:36.935Z,14.75
2022-09-28T21:28:39.853Z,14.75
2022-09-28T21:31:45.775Z,14.78
2022-09-28T21:34:48.062Z,14.71
2022-09-28T21:37:50.423Z,14.69
2022-09-28T21:40:57.044Z,14.74
2022-09-28T21:43:59.409Z,14.61
2022-09-28T21:47:01.720Z,14.67
2022-09-28T21:50:04.095Z,14.79
2022-09-28T21:53:06.352Z,14.65
2022-09-28T21:56:11.193Z,14.70
2022-09-28T21:59:13.474Z,14.79
2022-09-28T22:02:15.761Z,14.85
2022-09-28T22:05:19.328Z,14.95
2022-09-28T22:08:21.949Z,15.00
2022-09-28T22:11:27.116Z,14.92
2022-09-28T22:14:29.561Z,14.99
2022-09-28T22:17:31.845Z,15.02
2022-09-28T22:20:34.159Z,14.92
2022-09-28T22:23:37.726Z,14.96
2022-09-28T22:26:40.519Z,14.98
2022-09-28T22:29:43.155Z,15.04
2022-09-28T22:32:45.479Z,15.10
2022-09-28T22:35:49.264Z,15.10
2022-09-28T22:38:52.002Z,15.13
2022-09-28T22:41:54.305Z,15.09
2022-09-28T22:44:56.594Z,15.08
2022-09-28T22:47:58.862Z,15.12
2022-09-28T22:51:01.792Z,15.12
2022-09-28T22:54:04.332Z,15.12
2022-09-28T22:57:06.616Z,15.10
2022-09-28T23:00:09.205Z,14.99
2022-09-28T23:03:11.635Z,14.97
2022-09-28T23:06:16.643Z,14.99
2022-09-28T23:09:19.246Z,14.97
2022-09-28T23:12:21.558Z,14.88
2022-09-28T23:15:24.658Z,14.89
2022-09-28T23:18:31.941Z,14.90
2022-09-28T23:21:34.355Z,14.92
2022-09-28T23:24:36.618Z,14.95
2022-09-28T23:27:38.860Z,14.95
2022-09-28T23:30:41.070Z,15.02
2022-09-28T23:33:43.498Z,15.01
2022-09-28T23:36:45.846Z,15.00
2022-09-28T23:39:48.108Z,15.10
2022-09-28T23:42:50.384Z,15.09
2022-09-28T23:45:52.697Z,14.87
2022-09-28T23:48:55.013Z,14.88
2022-09-28T23:51:57.265Z,14.91
2022-09-28T23:54:59.526Z,14.95
2022-09-28T23:58:01.786Z,14.88
